Time;durP1;ratioP1;P1;durP2;ratioP2;P2;SDS_P1;SDS_P2;PMS_P1;PMS_P2;Temp;Humidity;BMP_temperature;BMP_pressure;BME280_temperature;BME280_humidity;BME280_pressure;Samples;Min_cycle;Max_cycle;Signal;HPM_P1;HPM_P2
2021/08/02 00:01:30;;;;;;;0.40;0.10;;;;;;;19.65;70.10;99274.88;125916;1095;114069;-69
2021/08/02 00:04:09;;;;;;;0.40;0.10;;;;;;;19.59;70.60;99278.06;126149;1095;103126;-69
2021/08/02 00:06:48;;;;;;;0.40;0.10;;;;;;;19.47;70.44;99279.92;126048;1093;113989;-69
2021/08/02 00:09:17;;;;;;;0.40;0.10;;;;;;;19.44;70.33;99286.44;126109;1095;102881;-70
2021/08/02 00:11:50;;;;;;;0.40;0.10;;;;;;;19.36;70.34;99294.30;126108;1095;102903;-70
2021/08/02 00:14:20;;;;;;;0.40;0.10;;;;;;;19.26;70.87;99296.02;125998;1095;115961;-69
2021/08/02 00:16:48;;;;;;;0.40;0.10;;;;;;;19.22;70.91;99290.03;126136;1095;102994;-70
2021/08/02 00:19:15;;;;;;;0.40;0.10;;;;;;;19.17;70.72;99290.38;126090;1095;114057;-70
2021/08/02 00:21:44;;;;;;;0.40;0.10;;;;;;;19.09;70.44;99292.84;126557;1096;103039;-71
2021/08/02 00:24:11;;;;;;;0.40;0.10;;;;;;;19.05;70.78;99294.91;126065;1093;113927;-70
2021/08/02 00:26:39;;;;;;;0.40;0.10;;;;;;;18.97;70.53;99291.97;126096;1093;103031;-70
2021/08/02 00:29:08;;;;;;;0.40;0.10;;;;;;;18.94;70.92;99294.92;126289;1093;102904;-70
2021/08/02 00:31:36;;;;;;;0.40;0.10;;;;;;;18.86;70.40;99300.04;126074;1093;114155;-70
2021/08/02 00:34:04;;;;;;;0.40;0.10;;;;;;;18.80;70.63;99304.05;126267;1096;103335;-70
2021/08/02 00:36:44;;;;;;;0.40;0.10;;;;;;;18.79;70.90;99304.18;125922;1093;114189;-70
2021/08/02 00:39:14;;;;;;;0.40;0.10;;;;;;;18.71;71.31;99310.16;126061;1091;102887;-70
2021/08/02 00:42:22;;;;;;;0.40;0.10;;;;;;;18.70;71.07;99312.02;126046;1092;102904;-70
2021/08/02 00:45:21;;;;;;;0.40;0.10;;;;;;;18.75;71.20;99310.80;126079;1093;102958;-70
2021/08/02 00:47:57;;;;;;;0.40;0.10;;;;;;;18.80;71.09;99311.30;126051;1093;105631;-70
2021/08/02 00:50:30;;;;;;;0.40;0.10;;;;;;;18.82;71.06;99310.20;126015;1095;114469;-71
2021/08/02 00:53:12;;;;;;;0.40;0.10;;;;;;;18.86;70.74;99310.83;126132;1093;102941;-69
2021/08/02 00:55:48;;;;;;;0.40;0.10;;;;;;;18.86;70.92;99317.08;125949;1091;113926;-69
2021/08/02 00:58:17;;;;;;;0.40;0.10;;;;;;;18.92;70.90;99318.45;126104;1092;102904;-69
2021/08/02 01:00:45;;;;;;;0.40;0.10;;;;;;;18.92;70.81;99315.75;125989;1093;114147;-69
2021/08/02 01:03:13;;;;;;;0.40;0.10;;;;;;;18.97;70.40;99315.41;126040;1093;102962;-69
2021/08/02 01:05:42;;;;;;;0.40;0.10;;;;;;;18.95;70.34;99318.20;126188;1093;102903;-69
2021/08/02 01:08:18;;;;;;;0.40;0.10;;;;;;;18.96;70.41;99316.38;126085;1092;113992;-68
2021/08/02 01:10:49;;;;;;;0.40;0.10;;;;;;;19.05;70.17;99323.75;126130;1096;102978;-69
2021/08/02 01:13:17;;;;;;;0.40;0.10;;;;;;;19.11;70.22;99311.61;125949;1093;114029;-69
2021/08/02 01:15:50;;;;;;;0.40;0.10;;;;;;;19.18;70.14;99316.40;126257;1093;103023;-69
2021/08/02 01:18:19;;;;;;;0.40;0.10;;;;;;;19.24;69.84;99317.74;126026;1094;102911;-69
2021/08/02 01:20:48;;;;;;;0.40;0.10;;;;;;;19.28;69.85;99304.86;125981;1093;113674;-69
2021/08/02 01:23:16;;;;;;;0.40;0.10;;;;;;;19.19;70.05;99314.55;126053;1093;102997;-69
2021/08/02 01:25:44;;;;;;;0.40;0.10;;;;;;;19.17;70.35;99306.58;126086;1093;113981;-69
2021/08/02 01:28:13;;;;;;;0.40;0.10;;;;;;;19.21;70.15;99304.50;126087;1093;103004;-69
2021/08/02 01:30:42;;;;;;;0.40;0.10;;;;;;;19.20;69.93;99302.78;126060;1092;114117;-69
2021/08/02 01:33:09;;;;;;;0.40;0.10;;;;;;;19.22;70.40;99300.83;126128;1092;103489;-69
2021/08/02 01:35:38;;;;;;;0.40;0.10;;;;;;;19.25;70.32;99305.13;126122;1093;103045;-69
2021/08/02 01:38:05;;;;;;;0.40;0.10;;;;;;;19.25;70.03;99295.17;126082;1092;113913;-69
2021/08/02 01:40:33;;;;;;;0.40;0.10;;;;;;;19.27;70.28;99295.05;126158;1093;103181;-69
2021/08/02 01:43:03;;;;;;;0.40;0.10;;;;;;;19.23;70.58;99294.42;126013;1095;114879;-69
2021/08/02 01:45:47;;;;;;;0.40;0.10;;;;;;;19.17;70.06;99295.78;126149;1092;103055;-69
2021/08/02 01:48:18;;;;;;;0.40;0.10;;;;;;;19.13;70.45;99297.01;126130;1093;102968;-69
2021/08/02 01:50:59;;;;;;;0.40;0.10;;;;;;;19.14;70.31;99290.64;126114;1093;113756;-69
2021/08/02 01:53:51;;;;;;;0.40;0.10;;;;;;;19.11;70.55;99284.62;126116;1093;102937;-69
2021/08/02 01:56:22;;;;;;;0.40;0.10;;;;;;;19.07;70.59;99291.24;126083;1093;115735;-69
2021/08/02 01:58:57;;;;;;;0.40;0.10;;;;;;;19.06;70.69;99295.80;126101;1093;102956;-69
2021/08/02 02:01:25;;;;;;;0.40;0.10;;;;;;;19.07;70.79;99296.64;126153;1093;113957;-69
2021/08/02 02:03:55;;;;;;;0.40;0.10;;;;;;;19.03;70.81;99298.71;126141;1092;102910;-69
2021/08/02 02:06:26;;;;;;;0.40;0.10;;;;;;;19.05;71.00;99294.06;125992;1093;114755;-69
2021/08/02 02:09:14;;;;;;;0.40;0.10;;;;;;;19.11;70.76;99296.26;126027;1092;103049;-69
2021/08/02 02:11:45;;;;;;;0.40;0.10;;;;;;;19.04;70.63;99297.74;126104;1093;102897;-70
2021/08/02 02:14:12;;;;;;;0.40;0.10;;;;;;;19.03;70.89;99298.71;125923;1093;113956;-69
2021/08/02 02:16:43;;;;;;;0.40;0.10;;;;;;;19.02;70.83;99289.77;126036;1093;102908;-69
2021/08/02 02:19:11;;;;;;;0.40;0.10;;;;;;;19.08;70.97;99299.21;125911;1093;113855;-69
2021/08/02 02:21:39;;;;;;;0.40;0.10;;;;;;;19.09;70.80;99297.39;126043;1093;102892;-70
2021/08/02 02:24:06;;;;;;;0.40;0.10;;;;;;;19.03;70.87;99299.59;125990;1093;102874;-70
2021/08/02 02:26:34;;;;;;;0.40;0.10;;;;;;;19.06;71.00;99295.80;125941;1093;113226;-70
2021/08/02 02:29:11;;;;;;;0.40;0.10;;;;;;;19.14;70.69;99297.86;125986;1092;103177;-70
2021/08/02 02:31:40;;;;;;;0.40;0.10;;;;;;;18.98;70.42;99309.89;126095;1093;113936;-69
2021/08/02 02:34:09;;;;;;;0.40;0.10;;;;;;;18.96;70.57;99305.59;126008;1093;103253;-69
2021/08/02 02:36:37;;;;;;;0.40;0.10;;;;;;;18.99;70.67;99314.31;125964;1094;114140;-69
2021/08/02 02:39:04;;;;;;;0.40;0.10;;;;;;;18.98;70.84;99312.59;126783;1093;102981;-70
2021/08/02 02:41:32;;;;;;;0.40;0.10;;;;;;;18.95;70.90;99322.75;126050;1093;102999;-69
2021/08/02 02:44:01;;;;;;;0.40;0.10;;;;;;;18.93;70.77;99317.48;125942;1092;114085;-69
2021/08/02 02:46:29;;;;;;;0.40;0.10;;;;;;;18.85;70.66;99331.53;126891;1092;102887;-69
2021/08/02 02:48:58;;;;;;;0.40;0.10;;;;;;;18.83;70.62;99327.23;125919;1092;114141;-69
2021/08/02 02:51:27;;;;;;;0.40;0.10;;;;;;;18.85;70.91;99330.69;126096;1094;103096;-69
2021/08/02 02:53:55;;;;;;;0.40;0.10;;;;;;;18.86;70.53;99330.56;126041;1096;102971;-71
2021/08/02 02:56:22;;;;;;;0.40;0.10;;;;;;;18.89;70.50;99324.09;125932;1094;114152;-74
2021/08/02 02:58:50;;;;;;;0.40;0.10;;;;;;;18.86;70.65;99319.77;126002;1093;103202;-72
2021/08/02 03:01:20;;;;;;;0.40;0.10;;;;;;;18.93;70.51;99322.88;125994;1093;113941;-72
2021/08/02 03:03:50;;;;;;;0.40;0.10;;;;;;;18.97;70.64;99323.50;126223;1095;102956;-69
2021/08/02 03:06:18;;;;;;;0.40;0.10;;;;;;;18.91;70.47;99322.13;126005;1095;102937;-70
2021/08/02 03:08:45;;;;;;;0.40;0.10;;;;;;;18.89;70.56;99332.20;126022;1095;113836;-70
2021/08/02 03:11:16;;;;;;;0.40;0.10;;;;;;;18.90;70.16;99333.92;126110;1095;102983;-70
2021/08/02 03:13:44;;;;;;;0.40;0.10;;;;;;;18.86;70.39;99343.20;126812;1095;114612;-70
2021/08/02 03:16:11;;;;;;;0.40;0.10;;;;;;;18.81;70.14;99340.84;126020;1094;102969;-70
2021/08/02 03:18:38;;;;;;;0.40;0.10;;;;;;;18.77;70.33;99354.70;125922;1093;114144;-70
2021/08/02 03:21:06;;;;;;;0.40;0.10;;;;;;;18.81;70.60;99350.79;126025;1093;103100;-70
2021/08/02 03:23:36;;;;;;;0.40;0.10;;;;;;;18.78;70.40;99346.49;126057;1095;102935;-70
2021/08/02 03:26:12;;;;;;;0.40;0.10;;;;;;;18.77;70.32;99349.31;125890;1094;113978;-69
2021/08/02 03:28:41;;;;;;;0.40;0.10;;;;;;;18.78;70.29;99348.31;126064;1095;102895;-70
2021/08/02 03:31:11;;;;;;;0.40;0.10;;;;;;;18.80;70.53;99357.16;125968;1095;114319;-70
2021/08/02 03:33:41;;;;;;;0.40;0.10;;;;;;;18.66;70.40;99360.90;126026;1095;102962;-70
2021/08/02 03:36:11;;;;;;;0.40;0.10;;;;;;;18.57;70.62;99361.60;126067;1095;102994;-71
2021/08/02 03:38:40;;;;;;;0.40;0.10;;;;;;;18.54;70.78;99363.58;125981;1094;113931;-71
2021/08/02 03:41:08;;;;;;;0.40;0.10;;;;;;;18.54;70.99;99352.79;126065;1093;103403;-71
2021/08/02 03:43:35;;;;;;;0.40;0.10;;;;;;;18.63;70.72;99358.45;125954;1093;114015;-72
2021/08/02 03:46:04;;;;;;;0.40;0.10;;;;;;;18.75;70.65;99359.34;126009;1093;102916;-70
2021/08/02 03:48:33;;;;;;;0.40;0.10;;;;;;;18.78;70.49;99361.80;125882;1093;114088;-72
2021/08/02 03:51:00;;;;;;;0.40;0.10;;;;;;;18.80;70.46;99360.70;126053;1093;102879;-69
2021/08/02 03:53:27;;;;;;;0.40;0.10;;;;;;;18.80;70.78;99360.70;126043;1093;102994;-69
2021/08/02 03:55:54;;;;;;;0.40;0.10;;;;;;;18.79;70.50;99366.22;125907;1093;113952;-69
2021/08/02 03:58:21;;;;;;;0.40;0.10;;;;;;;18.80;70.56;99367.95;126037;1096;103031;-69
2021/08/02 04:00:49;;;;;;;0.40;0.10;;;;;;;18.88;70.50;99368.20;125890;1093;114128;-69
2021/08/02 04:03:16;;;;;;;0.40;0.10;;;;;;;18.88;70.60;99368.20;125981;1093;102919;-69
2021/08/02 04:05:43;;;;;;;0.40;0.10;;;;;;;18.89;70.49;99375.36;125969;1093;103569;-70
2021/08/02 04:08:10;;;;;;;0.40;0.10;;;;;;;18.93;70.35;99379.54;125914;1093;114002;-70
2021/08/02 04:10:37;;;;;;;0.40;0.10;;;;;;;18.95;70.35;99380.26;126023;1093;102887;-70
2021/08/02 04:13:05;;;;;;;0.40;0.10;;;;;;;18.96;70.68;99381.14;126025;1093;114176;-69
2021/08/02 04:15:32;;;;;;;0.40;0.10;;;;;;;18.99;70.45;99376.38;125991;1093;102888;-69
2021/08/02 04:17:59;;;;;;;0.40;0.10;;;;;;;18.99;70.42;99384.47;126027;1093;103039;-70
2021/08/02 04:20:26;;;;;;;0.40;0.10;;;;;;;19.00;70.52;99396.11;125875;1096;114521;-69
2021/08/02 04:22:53;;;;;;;0.40;0.10;;;;;;;18.97;70.59;99399.05;126087;1095;102915;-69
2021/08/02 04:25:20;;;;;;;0.40;0.10;;;;;;;18.97;70.97;99407.15;125888;1093;113792;-69
2021/08/02 04:27:51;;;;;;;0.40;0.10;;;;;;;19.04;71.39;99408.38;126002;1095;103205;-69
2021/08/02 04:30:18;;;;;;;0.40;0.10;;;;;;;19.03;70.96;99409.35;126011;1095;103054;-69
2021/08/02 04:32:47;;;;;;;0.40;0.10;;;;;;;19.07;71.20;99416.23;125968;1093;113881;-69
2021/08/02 04:35:14;;;;;;;0.40;0.10;;;;;;;19.11;71.22;99409.61;126965;1093;102907;-69
2021/08/02 04:37:41;;;;;;;0.40;0.10;;;;;;;19.15;71.23;99412.94;125936;1093;114012;-69
2021/08/02 04:40:09;;;;;;;0.40;0.10;;;;;;;19.19;71.11;99415.30;126005;1093;103162;-69
2021/08/02 04:42:37;;;;;;;0.40;0.10;;;;;;;19.21;71.06;99421.42;125962;1092;114198;-69
2021/08/02 04:45:06;;;;;;;0.40;0.10;;;;;;;19.23;70.85;99423.98;125957;1095;103026;-69
2021/08/02 04:47:33;;;;;;;0.40;0.10;;;;;;;19.23;70.71;99434.78;126011;1095;103332;-72
2021/08/02 04:50:00;;;;;;;0.40;0.07;;;;;;;19.20;70.85;99430.48;125841;1092;114046;-72
2021/08/02 04:52:27;;;;;;;0.40;0.10;;;;;;;19.16;70.84;99434.41;126064;1093;103389;-71
2021/08/02 04:54:55;;;;;;;0.40;0.10;;;;;;;19.14;70.97;99440.91;125917;1095;114244;-71
2021/08/02 04:57:23;;;;;;;0.40;0.10;;;;;;;19.12;70.85;99440.17;125980;1093;103003;-71
2021/08/02 04:59:50;;;;;;;0.40;0.10;;;;;;;19.14;70.98;99438.20;125995;1092;102932;-71
2021/08/02 05:02:17;;;;;;;0.40;0.03;;;;;;;19.10;71.23;99440.30;125890;1093;113953;-72
2021/08/02 05:04:44;;;;;;;0.40;0.10;;;;;;;19.14;71.47;99436.38;126052;1093;102899;-73
2021/08/02 05:07:11;;;;;;;0.40;0.10;;;;;;;19.14;71.05;99449.00;125921;1092;114010;-73
2021/08/02 05:09:38;;;;;;;0.40;0.10;;;;;;;19.13;71.16;99440.05;126025;1092;105202;-73
2021/08/02 05:12:06;;;;;;;0.40;0.10;;;;;;;19.17;70.82;99456.88;126087;1093;103384;-73
2021/08/02 05:14:33;;;;;;;0.40;0.10;;;;;;;19.13;70.88;99450.00;125947;1092;113908;-72
2021/08/02 05:17:00;;;;;;;0.40;0.10;;;;;;;19.11;71.33;99452.80;126084;1093;105070;-73
2021/08/02 05:19:27;;;;;;;0.40;0.10;;;;;;;19.15;71.48;99461.52;125953;1093;114131;-73
2021/08/02 05:21:55;;;;;;;0.40;0.10;;;;;;;19.13;71.06;99455.40;126019;1093;103104;-74
2021/08/02 05:24:22;;;;;;;0.40;0.10;;;;;;;19.10;71.71;99447.52;126127;1093;102923;-74
2021/08/02 05:26:49;;;;;;;0.40;0.10;;;;;;;19.12;71.48;99462.62;125939;1093;113819;-74
2021/08/02 05:29:16;;;;;;;0.40;0.10;;;;;;;19.12;71.04;99457.22;126031;1093;103052;-72
2021/08/02 05:31:43;;;;;;;0.40;0.10;;;;;;;19.15;71.37;99459.70;125920;1093;114041;-71
2021/08/02 05:34:13;;;;;;;0.40;0.10;;;;;;;19.18;71.16;99467.55;126077;1092;103064;-71
2021/08/02 05:36:41;;;;;;;0.40;0.10;;;;;;;19.17;70.67;99465.83;125928;1093;114250;-72
2021/08/02 05:39:09;;;;;;;0.40;0.00;;;;;;;19.21;71.04;99472.70;126028;1093;102891;-71
2021/08/02 05:41:36;;;;;;;0.40;0.10;;;;;;;19.25;71.24;99465.23;126020;1093;102901;-71
2021/08/02 05:44:04;;;;;;;0.40;0.10;;;;;;;19.29;70.53;99468.56;125951;1093;113909;-71
2021/08/02 05:46:31;;;;;;;0.40;0.00;;;;;;;19.35;70.93;99460.85;125993;1092;102917;-71
2021/08/02 05:48:58;;;;;;;0.40;0.00;;;;;;;19.44;70.78;99469.20;125915;1093;114180;-71
2021/08/02 05:51:25;;;;;;;0.40;0.00;;;;;;;19.48;70.19;99471.53;126028;1093;103073;-71
2021/08/02 05:53:53;;;;;;;0.40;0.10;;;;;;;19.43;70.52;99471.03;126063;1093;102975;-71
2021/08/02 05:56:20;;;;;;;0.40;0.10;;;;;;;19.41;70.42;99470.30;125865;1092;113971;-71
2021/08/02 05:58:47;;;;;;;0.40;0.10;;;;;;;19.44;70.28;99475.45;126046;1092;102999;-72
2021/08/02 06:01:14;;;;;;;0.40;0.10;;;;;;;19.45;70.11;99471.78;125892;1092;115567;-71
2021/08/02 06:03:42;;;;;;;0.40;0.10;;;;;;;19.44;70.21;99483.55;125997;1092;102929;-71
2021/08/02 06:06:09;;;;;;;0.40;0.10;;;;;;;19.43;70.38;99489.08;125995;1093;103013;-71
2021/08/02 06:08:38;;;;;;;0.40;0.10;;;;;;;19.50;70.08;99485.78;125889;1093;113979;-71
2021/08/02 06:11:06;;;;;;;0.40;0.10;;;;;;;19.51;70.38;99492.91;125967;1093;102917;-72
2021/08/02 06:13:33;;;;;;;0.40;0.10;;;;;;;19.46;70.20;99496.93;125899;1093;114006;-72
2021/08/02 06:16:00;;;;;;;0.40;0.10;;;;;;;19.47;70.02;99499.54;125960;1093;102932;-71
2021/08/02 06:18:28;;;;;;;0.40;0.10;;;;;;;19.42;70.61;99501.73;126021;1095;102996;-71
2021/08/02 06:20:55;;;;;;;0.40;0.10;;;;;;;19.36;70.39;99502.20;125909;1093;113833;-71
2021/08/02 06:23:22;;;;;;;0.40;0.10;;;;;;;19.37;71.24;99503.92;126037;1093;103045;-73
2021/08/02 06:25:49;;;;;;;0.40;0.00;;;;;;;19.42;70.76;99509.83;125866;1092;113923;-73
2021/08/02 06:28:16;;;;;;;0.40;0.00;;;;;;;19.44;70.51;99505.16;126036;1092;102987;-72
2021/08/02 06:30:44;;;;;;;0.40;0.00;;;;;;;19.60;70.42;99506.67;125979;1092;114855;-72
2021/08/02 06:33:11;;;;;;;0.40;0.10;;;;;;;19.64;70.78;99511.70;125971;1092;102963;-73
2021/08/02 06:35:38;;;;;;;0.40;0.10;;;;;;;19.59;70.55;99513.05;126040;1093;102906;-72
2021/08/02 06:38:05;;;;;;;0.40;0.00;;;;;;;19.66;70.38;99517.85;125890;1095;114078;-71
2021/08/02 06:40:32;;;;;;;0.40;0.10;;;;;;;19.72;70.40;99519.20;125996;1093;102977;-71
2021/08/02 06:42:59;;;;;;;0.40;0.10;;;;;;;19.76;70.41;99526.09;125901;1093;114252;-71
2021/08/02 06:45:27;;;;;;;0.40;0.10;;;;;;;19.78;70.34;99517.85;126049;1093;102900;-73
2021/08/02 06:47:56;;;;;;;0.40;0.10;;;;;;;19.74;70.32;99524.48;126027;1093;103594;-74
2021/08/02 06:50:25;;;;;;;0.40;0.10;;;;;;;19.78;70.41;99521.44;125895;1093;113856;-74
2021/08/02 06:52:52;;;;;;;0.40;0.07;;;;;;;19.84;70.12;99525.52;125949;1093;104970;-74
2021/08/02 06:55:19;;;;;;;0.40;0.10;;;;;;;19.78;69.88;99524.14;125978;1093;113963;-74
2021/08/02 06:57:47;;;;;;;0.40;0.10;;;;;;;19.77;70.18;99527.81;125997;1093;102900;-72
2021/08/02 07:00:14;;;;;;;0.40;0.03;;;;;;;19.85;70.49;99521.84;125984;1094;103140;-70
2021/08/02 07:02:42;;;;;;;0.40;0.00;;;;;;;19.93;70.45;99532.89;125871;1093;113995;-71
2021/08/02 07:05:11;;;;;;;0.40;0.10;;;;;;;19.92;69.69;99535.73;126043;1095;102986;-73
2021/08/02 07:07:38;;;;;;;0.40;0.10;;;;;;;19.94;69.58;99547.25;125912;1096;113830;-73
2021/08/02 07:10:06;;;;;;;0.40;0.10;;;;;;;19.97;69.72;99545.18;125945;1095;103421;-70
2021/08/02 07:12:34;;;;;;;0.40;0.00;;;;;;;20.09;69.74;99537.09;127556;1092;114215;-71
2021/08/02 07:15:02;;;;;;;0.40;0.10;;;;;;;20.17;69.47;99543.59;126496;1093;102993;-71
2021/08/02 07:17:29;;;;;;;0.40;0.10;;;;;;;20.25;69.26;99542.97;126003;1093;102953;-71
2021/08/02 07:19:56;;;;;;;0.40;0.10;;;;;;;20.18;68.89;99544.47;125884;1094;113957;-71
2021/08/02 07:22:23;;;;;;;0.40;0.08;;;;;;;20.22;69.52;99545.94;125937;1093;103035;-71
2021/08/02 07:24:51;;;;;;;0.40;0.00;;;;;;;20.12;68.60;99553.91;125908;1093;114084;-72
2021/08/02 07:27:18;;;;;;;0.40;0.00;;;;;;;20.10;68.47;99550.48;125877;1095;102937;-71
2021/08/02 07:29:48;;;;;;;0.40;0.10;;;;;;;20.15;68.97;99553.68;126002;1093;102969;-71
2021/08/02 07:32:15;;;;;;;0.40;0.10;;;;;;;20.21;68.65;99555.88;125866;1093;113933;-71
2021/08/02 07:34:42;;;;;;;0.40;0.00;;;;;;;20.28;68.69;99567.05;126028;1093;103033;-71
2021/08/02 07:37:10;;;;;;;0.40;0.10;;;;;;;20.31;68.95;99566.83;125813;1092;114053;-70
2021/08/02 07:39:37;;;;;;;0.40;0.00;;;;;;;20.36;68.90;99567.29;125952;1093;103069;-71
2021/08/02 07:42:05;;;;;;;0.40;0.00;;;;;;;20.36;68.35;99572.70;125896;1092;103012;-71
2021/08/02 07:44:33;;;;;;;0.40;0.00;;;;;;;20.38;67.51;99573.45;125880;1093;113940;-73
2021/08/02 07:47:00;;;;;;;0.40;0.00;;;;;;;20.34;67.50;99576.51;125922;1095;102935;-73
2021/08/02 07:49:29;;;;;;;0.40;0.00;;;;;;;20.29;68.55;99589.56;125855;1093;113913;-73
2021/08/02 07:51:56;;;;;;;0.40;0.10;;;;;;;20.32;67.76;99587.45;125935;1092;102908;-73
2021/08/02 07:54:23;;;;;;;0.40;0.10;;;;;;;20.39;68.50;99585.11;125992;1093;102901;-73
2021/08/02 07:56:50;;;;;;;0.40;0.10;;;;;;;20.45;68.37;99592.74;125835;1092;114277;-73
2021/08/02 07:59:17;;;;;;;0.40;0.00;;;;;;;20.44;67.31;99591.02;125912;1095;103016;-73
2021/08/02 08:01:44;;;;;;;0.40;0.08;;;;;;;20.49;67.65;99591.51;125803;1095;113894;-73
2021/08/02 08:04:12;;;;;;;0.40;0.10;;;;;;;20.52;66.96;99593.95;125927;1093;102904;-73
2021/08/02 08:06:39;;;;;;;0.40;0.00;;;;;;;20.59;67.69;99598.88;125846;1093;114097;-73
2021/08/02 08:09:06;;;;;;;0.40;0.00;;;;;;;20.60;67.29;99595.20;125985;1093;103036;-73
2021/08/02 08:11:33;;;;;;;0.40;0.10;;;;;;;20.63;67.28;99600.34;125848;1093;103117;-73
2021/08/02 08:14:00;;;;;;;0.40;0.00;;;;;;;20.71;67.07;99596.08;125825;1092;114060;-73
2021/08/02 08:16:28;;;;;;;0.40;0.10;;;;;;;20.78;66.84;99598.27;125998;1092;102876;-73
2021/08/02 08:18:56;;;;;;;0.40;0.00;;;;;;;20.74;67.02;99611.20;125833;1095;114104;-73
2021/08/02 08:21:24;;;;;;;0.40;0.00;;;;;;;20.64;66.91;99602.92;125987;1092;103268;-73
2021/08/02 08:23:51;;;;;;;0.40;0.00;;;;;;;20.62;66.49;99606.73;125989;1093;103034;-71
2021/08/02 08:26:21;;;;;;;0.40;0.00;;;;;;;20.60;66.41;99606.87;125878;1095;114111;-71
2021/08/02 08:28:48;;;;;;;0.40;0.00;;;;;;;20.79;66.33;99606.28;125965;1093;102913;-72
2021/08/02 08:31:17;;;;;;;0.40;0.00;;;;;;;20.93;65.24;99602.42;125843;1093;114102;-71
2021/08/02 08:33:46;;;;;;;0.40;0.00;;;;;;;20.96;66.00;99602.16;125940;1093;103078;-71
2021/08/02 08:36:15;;;;;;;0.40;0.00;;;;;;;21.16;67.03;99605.92;126027;1091;103364;-71
2021/08/02 08:38:43;;;;;;;0.40;0.00;;;;;;;21.29;65.27;99608.47;126506;1094;114087;-71
2021/08/02 08:41:14;;;;;;;0.40;0.00;;;;;;;21.33;64.47;99617.20;125990;1092;105057;-71
2021/08/02 08:43:41;;;;;;;0.40;0.00;;;;;;;21.40;64.84;99612.98;125932;1093;113934;-71
2021/08/02 08:46:08;;;;;;;0.40;0.00;;;;;;;21.36;62.98;99619.64;126048;1093;103180;-71
2021/08/02 08:48:35;;;;;;;0.40;0.10;;;;;;;21.40;63.80;99620.25;125879;1093;114115;-71
2021/08/02 08:51:03;;;;;;;0.40;0.00;;;;;;;21.48;63.59;99617.75;125873;1093;102973;-73
2021/08/02 08:53:32;;;;;;;0.40;0.00;;;;;;;21.61;62.96;99623.88;125847;1093;105087;-73
2021/08/02 08:56:01;;;;;;;0.40;0.00;;;;;;;21.60;62.89;99626.73;125899;1093;114018;-73
2021/08/02 08:58:28;;;;;;;0.40;0.00;;;;;;;21.56;62.74;99625.27;126005;1093;102890;-72
2021/08/02 09:01:03;;;;;;;0.40;0.00;;;;;;;21.59;62.90;99623.14;125929;1093;114099;-73
2021/08/02 09:03:31;;;;;;;0.40;0.10;;;;;;;21.80;63.30;99622.31;126564;1094;102900;-72
2021/08/02 09:06:04;;;;;;;0.40;0.00;;;;;;;21.82;62.20;99629.31;126062;1095;102891;-72
2021/08/02 09:08:40;;;;;;;0.40;0.00;;;;;;;21.94;62.87;99626.52;125900;1094;114005;-72
2021/08/02 09:11:07;;;;;;;0.40;0.00;;;;;;;21.93;60.85;99635.67;125993;1093;102922;-72
2021/08/02 09:13:36;;;;;;;0.40;0.10;;;;;;;21.84;60.28;99638.16;125895;1096;113960;-71
2021/08/02 09:16:20;;;;;;;0.40;0.00;;;;;;;21.85;62.02;99633.62;126494;1093;102991;-71
2021/08/02 09:19:04;;;;;;;0.40;0.00;;;;;;;21.93;61.78;99647.37;125780;1093;114162;-71
2021/08/02 09:21:45;;;;;;;0.40;0.10;;;;;;;22.03;61.32;99645.59;125971;1094;102921;-74
2021/08/02 09:24:12;;;;;;;0.40;0.00;;;;;;;22.08;60.71;99647.89;126016;1093;103120;-74
2021/08/02 09:26:41;;;;;;;0.40;0.00;;;;;;;22.03;59.55;99653.72;125928;1093;113929;-72
2021/08/02 09:29:11;;;;;;;0.40;0.00;;;;;;;22.25;60.31;99646.42;126042;1093;102959;-71
2021/08/02 09:31:45;;;;;;;0.40;0.00;;;;;;;22.49;60.45;99650.73;125838;1093;114006;-71
2021/08/02 09:34:12;;;;;;;0.40;0.10;;;;;;;22.64;59.06;99651.21;125996;1093;103010;-71
2021/08/02 09:36:42;;;;;;;0.40;0.00;;;;;;;22.62;59.69;99655.91;125900;1092;114255;-71
2021/08/02 09:39:12;;;;;;;0.40;0.00;;;;;;;22.65;58.42;99661.08;125968;1096;103026;-75
2021/08/02 09:41:39;;;;;;;0.40;0.00;;;;;;;22.48;57.56;99660.70;125971;1094;103073;-72
2021/08/02 09:44:17;;;;;;;0.40;0.00;;;;;;;22.33;58.59;99657.45;125863;1094;113946;-72
2021/08/02 09:47:03;;;;;;;0.40;0.10;;;;;;;22.37;57.93;99661.65;126010;1093;102897;-71
2021/08/02 09:49:47;;;;;;;0.40;0.00;;;;;;;22.50;58.10;99666.02;125861;1093;113938;-74
2021/08/02 09:52:15;;;;;;;0.40;0.00;;;;;;;22.58;58.36;99662.60;126135;1096;103273;-72
2021/08/02 09:54:43;;;;;;;0.40;0.00;;;;;;;22.57;57.76;99674.48;125853;1094;114573;-72
2021/08/02 09:57:11;;;;;;;0.40;0.00;;;;;;;22.66;58.53;99673.66;125961;1095;102948;-72
2021/08/02 09:59:42;;;;;;;0.40;0.00;;;;;;;22.79;57.84;99684.27;125964;1092;103025;-77
2021/08/02 10:02:11;;;;;;;0.40;0.00;;;;;;;23.11;57.77;99683.23;125929;1096;114084;-79
2021/08/02 10:04:40;;;;;;;0.40;0.00;;;;;;;23.30;55.53;99682.44;125846;1093;102924;-76
2021/08/02 10:07:13;;;;;;;0.40;0.00;;;;;;;23.58;55.25;99685.33;125853;1093;114145;-79
2021/08/02 10:09:41;;;;;;;0.40;0.00;;;;;;;23.56;54.81;99688.20;125874;1095;102966;-77
2021/08/02 10:12:09;;;;;;;0.40;0.00;;;;;;;23.54;55.98;99695.66;125992;1093;102866;-77
2021/08/02 10:14:37;;;;;;;0.40;0.00;;;;;;;23.51;54.86;99695.91;125934;1093;113945;-76
2021/08/02 10:17:08;;;;;;;0.40;0.00;;;;;;;23.58;54.74;99697.09;126011;1096;103023;-77
2021/08/02 10:19:47;;;;;;;0.40;0.00;;;;;;;23.83;54.28;99706.55;125908;1093;113998;-80
2021/08/02 10:22:15;;;;;;;0.40;0.00;;;;;;;23.71;54.30;99703.10;126760;1093;102898;-76
2021/08/02 10:25:00;;;;;;;0.40;0.00;;;;;;;23.80;54.31;99711.40;125771;1095;114139;-76
2021/08/02 10:27:29;;;;;;;0.40;0.00;;;;;;;24.27;54.36;99697.06;126060;1093;102929;-76
2021/08/02 10:30:19;;;;;;;0.40;0.00;;;;;;;24.66;51.51;99708.75;125886;1093;103058;-78
2021/08/02 10:32:52;;;;;;;0.40;0.00;;;;;;;24.51;51.54;99710.19;125918;1093;113990;-76
2021/08/02 10:35:44;;;;;;;0.40;0.00;;;;;;;24.70;49.83;99699.27;125979;1094;102882;-76
2021/08/02 10:38:17;;;;;;;0.40;0.00;;;;;;;24.92;50.69;99699.05;125999;1096;114403;-77
2021/08/02 10:40:50;;;;;;;0.40;0.00;;;;;;;25.03;51.04;99704.28;126143;1093;103315;-78
2021/08/02 10:43:32;;;;;;;0.40;0.00;;;;;;;24.77;49.63;99696.81;125905;1093;114130;-76
2021/08/02 10:46:01;;;;;;;0.40;0.00;;;;;;;24.45;51.17;99700.75;125985;1093;102944;-77
2021/08/02 10:48:33;;;;;;;0.40;0.00;;;;;;;24.24;50.47;99710.97;126051;1094;103119;-76
2021/08/02 10:51:10;;;;;;;0.40;0.00;;;;;;;23.90;51.99;99712.30;125840;1093;114538;-76
2021/08/02 10:53:37;;;;;;;0.40;0.00;;;;;;;23.63;52.24;99707.52;126010;1093;103103;-79
2021/08/02 10:56:05;;;;;;;0.40;0.00;;;;;;;23.45;52.22;99712.80;125919;1093;114123;-76
2021/08/02 10:58:37;;;;;;;0.40;0.00;;;;;;;23.16;52.50;99714.44;125910;1095;103119;-76
2021/08/02 11:01:13;;;;;;;0.40;0.00;;;;;;;22.98;53.55;99713.34;125821;1092;114221;-75
2021/08/02 11:03:42;;;;;;;0.40;0.00;;;;;;;22.95;54.27;99713.63;125894;1093;103472;-76
2021/08/02 11:06:29;;;;;;;0.40;0.00;;;;;;;23.07;55.50;99717.94;126937;1093;102880;-76
2021/08/02 11:08:57;;;;;;;0.40;0.00;;;;;;;23.35;53.86;99716.36;125592;1093;114103;-76
2021/08/02 11:11:41;;;;;;;0.40;0.00;;;;;;;23.54;52.08;99720.12;125641;1093;102983;-76
2021/08/02 11:14:23;;;;;;;0.40;0.00;;;;;;;23.62;52.69;99722.98;125574;1093;114083;-76
2021/08/02 11:16:52;;;;;;;0.40;0.00;;;;;;;23.84;51.46;99719.11;125971;1093;103023;-76
2021/08/02 11:19:24;;;;;;;0.40;0.00;;;;;;;23.91;50.10;99724.88;126154;1092;114238;-78
2021/08/02 11:21:58;;;;;;;0.40;0.00;;;;;;;23.81;49.32;99724.00;126126;1093;102900;-77
2021/08/02 11:24:26;;;;;;;0.40;0.00;;;;;;;23.70;49.81;99716.84;126065;1092;102981;-76
2021/08/02 11:27:00;;;;;;;0.40;0.00;;;;;;;23.62;48.28;99714.83;125939;1096;114100;-76
2021/08/02 11:29:29;;;;;;;0.40;0.00;;;;;;;23.63;49.29;99721.11;126504;1096;102925;-78